sensor_id;sensor_type;location;lat;lon;timestamp;P1;durP1;ratioP1;P2;durP2;ratioP2
781;SDS011;374;52.568;13.402;2022-11-13T00:01:15;26.63;;;18.60;;
781;SDS011;374;52.568;13.402;2022-11-13T00:03:43;21.60;;;18.70;;
781;SDS011;374;52.568;13.402;2022-11-13T00:06:09;24.80;;;19.70;;
781;SDS011;374;52.568;13.402;2022-11-13T00:08:35;20.63;;;18.40;;
781;SDS011;374;52.568;13.402;2022-11-13T00:11:02;24.33;;;19.13;;
781;SDS011;374;52.568;13.402;2022-11-13T00:13:30;22.07;;;18.90;;
781;SDS011;374;52.568;13.402;2022-11-13T00:16:05;20.27;;;18.17;;
781;SDS011;374;52.568;13.402;2022-11-13T00:18:35;21.13;;;18.60;;
781;SDS011;374;52.568;13.402;2022-11-13T00:21:11;21.33;;;17.63;;
781;SDS011;374;52.568;13.402;2022-11-13T00:23:39;22.00;;;17.83;;
781;SDS011;374;52.568;13.402;2022-11-13T00:26:05;24.00;;;19.27;;
781;SDS011;374;52.568;13.402;2022-11-13T00:28:40;24.37;;;18.77;;
781;SDS011;374;52.568;13.402;2022-11-13T00:31:06;21.67;;;18.43;;
781;SDS011;374;52.568;13.402;2022-11-13T00:33:33;22.40;;;17.43;;
781;SDS011;374;52.568;13.402;2022-11-13T00:36:07;19.17;;;16.73;;
781;SDS011;374;52.568;13.402;2022-11-13T00:38:37;20.33;;;18.30;;
781;SDS011;374;52.568;13.402;2022-11-13T00:41:02;22.37;;;17.70;;
781;SDS011;374;52.568;13.402;2022-11-13T00:43:28;19.47;;;16.60;;
781;SDS011;374;52.568;13.402;2022-11-13T00:45:53;20.37;;;15.93;;
781;SDS011;374;52.568;13.402;2022-11-13T00:48:19;23.20;;;17.00;;
781;SDS011;374;52.568;13.402;2022-11-13T00:50:45;19.30;;;14.93;;
781;SDS011;374;52.568;13.402;2022-11-13T00:53:14;20.03;;;15.90;;
781;SDS011;374;52.568;13.402;2022-11-13T00:55:41;19.60;;;16.17;;
781;SDS011;374;52.568;13.402;2022-11-13T00:58:12;21.97;;;16.57;;
781;SDS011;374;52.568;13.402;2022-11-13T01:00:39;18.73;;;15.50;;
781;SDS011;374;52.568;13.402;2022-11-13T01:03:06;25.30;;;16.27;;
781;SDS011;374;52.568;13.402;2022-11-13T01:05:36;18.57;;;16.00;;
781;SDS011;374;52.568;13.402;2022-11-13T01:08:04;22.57;;;16.07;;
781;SDS011;374;52.568;13.402;2022-11-13T01:10:30;18.60;;;15.00;;
781;SDS011;374;52.568;13.402;2022-11-13T01:12:56;22.53;;;15.80;;
781;SDS011;374;52.568;13.402;2022-11-13T01:15:21;18.10;;;15.10;;
781;SDS011;374;52.568;13.402;2022-11-13T01:17:47;20.40;;;15.87;;
781;SDS011;374;52.568;13.402;2022-11-13T01:20:12;17.60;;;15.10;;
781;SDS011;374;52.568;13.402;2022-11-13T01:22:38;16.57;;;14.87;;
781;SDS011;374;52.568;13.402;2022-11-13T01:25:03;17.67;;;14.57;;
781;SDS011;374;52.568;13.402;2022-11-13T01:27:29;18.80;;;14.37;;
781;SDS011;374;52.568;13.402;2022-11-13T01:29:55;18.47;;;15.20;;
781;SDS011;374;52.568;13.402;2022-11-13T01:32:20;18.63;;;14.87;;
781;SDS011;374;52.568;13.402;2022-11-13T01:34:46;18.23;;;13.83;;
781;SDS011;374;52.568;13.402;2022-11-13T01:37:11;17.17;;;14.47;;
781;SDS011;374;52.568;13.402;2022-11-13T01:39:37;17.73;;;13.73;;
781;SDS011;374;52.568;13.402;2022-11-13T01:42:02;18.80;;;14.37;;
781;SDS011;374;52.568;13.402;2022-11-13T01:44:51;17.17;;;14.43;;
781;SDS011;374;52.568;13.402;2022-11-13T01:47:18;17.90;;;13.97;;
781;SDS011;374;52.568;13.402;2022-11-13T01:49:45;14.97;;;13.33;;
781;SDS011;374;52.568;13.402;2022-11-13T01:52:13;16.83;;;13.70;;
781;SDS011;374;52.568;13.402;2022-11-13T01:54:45;17.63;;;14.20;;
781;SDS011;374;52.568;13.402;2022-11-13T01:57:15;20.10;;;14.50;;
781;SDS011;374;52.568;13.402;2022-11-13T01:59:55;15.90;;;14.30;;
781;SDS011;374;52.568;13.402;2022-11-13T02:02:26;16.60;;;13.90;;
781;SDS011;374;52.568;13.402;2022-11-13T02:04:52;19.23;;;14.00;;
781;SDS011;374;52.568;13.402;2022-11-13T02:07:18;15.23;;;13.53;;
781;SDS011;374;52.568;13.402;2022-11-13T02:09:46;14.77;;;12.40;;
781;SDS011;374;52.568;13.402;2022-11-13T02:12:15;16.50;;;14.20;;
781;SDS011;374;52.568;13.402;2022-11-13T02:14:47;14.50;;;12.90;;
781;SDS011;374;52.568;13.402;2022-11-13T02:17:17;16.77;;;11.80;;
781;SDS011;374;52.568;13.402;2022-11-13T02:19:47;14.73;;;13.10;;
781;SDS011;374;52.568;13.402;2022-11-13T02:22:18;15.53;;;11.20;;
781;SDS011;374;52.568;13.402;2022-11-13T02:25:13;13.77;;;12.10;;
781;SDS011;374;52.568;13.402;2022-11-13T02:27:43;21.50;;;15.40;;
781;SDS011;374;52.568;13.402;2022-11-13T02:30:11;18.57;;;12.60;;
781;SDS011;374;52.568;13.402;2022-11-13T02:32:43;13.50;;;12.10;;
781;SDS011;374;52.568;13.402;2022-11-13T02:35:10;14.73;;;12.47;;
781;SDS011;374;52.568;13.402;2022-11-13T02:37:38;15.63;;;13.37;;
781;SDS011;374;52.568;13.402;2022-11-13T02:40:03;16.10;;;12.30;;
781;SDS011;374;52.568;13.402;2022-11-13T02:42:29;14.93;;;12.87;;
781;SDS011;374;52.568;13.402;2022-11-13T02:44:55;17.23;;;14.60;;
781;SDS011;374;52.568;13.402;2022-11-13T02:47:20;15.33;;;12.47;;
781;SDS011;374;52.568;13.402;2022-11-13T02:49:46;18.37;;;13.80;;
781;SDS011;374;52.568;13.402;2022-11-13T02:52:11;17.37;;;13.77;;
781;SDS011;374;52.568;13.402;2022-11-13T02:54:37;17.07;;;13.50;;
781;SDS011;374;52.568;13.402;2022-11-13T02:57:02;17.33;;;14.53;;
781;SDS011;374;52.568;13.402;2022-11-13T02:59:28;17.97;;;13.70;;
781;SDS011;374;52.568;13.402;2022-11-13T03:01:53;18.20;;;15.17;;
781;SDS011;374;52.568;13.402;2022-11-13T03:04:19;16.10;;;13.90;;
781;SDS011;374;52.568;13.402;2022-11-13T03:06:44;19.27;;;15.23;;
781;SDS011;374;52.568;13.402;2022-11-13T03:09:10;16.60;;;14.30;;
781;SDS011;374;52.568;13.402;2022-11-13T03:11:35;17.40;;;14.27;;
781;SDS011;374;52.568;13.402;2022-11-13T03:14:01;17.33;;;15.53;;
781;SDS011;374;52.568;13.402;2022-11-13T03:16:26;17.13;;;15.27;;
781;SDS011;374;52.568;13.402;2022-11-13T03:18:55;22.83;;;14.60;;
781;SDS011;374;52.568;13.402;2022-11-13T03:21:21;21.43;;;16.33;;
781;SDS011;374;52.568;13.402;2022-11-13T03:23:46;19.40;;;16.17;;
781;SDS011;374;52.568;13.402;2022-11-13T03:26:13;18.43;;;15.63;;
781;SDS011;374;52.568;13.402;2022-11-13T03:28:39;19.37;;;14.40;;
781;SDS011;374;52.568;13.402;2022-11-13T03:31:05;21.60;;;16.67;;
781;SDS011;374;52.568;13.402;2022-11-13T03:33:31;20.07;;;16.63;;
781;SDS011;374;52.568;13.402;2022-11-13T03:35:56;20.67;;;15.53;;
781;SDS011;374;52.568;13.402;2022-11-13T03:38:22;22.97;;;16.67;;
781;SDS011;374;52.568;13.402;2022-11-13T03:40:48;16.50;;;14.67;;
781;SDS011;374;52.568;13.402;2022-11-13T03:43:13;18.40;;;16.27;;
781;SDS011;374;52.568;13.402;2022-11-13T03:45:39;19.37;;;15.13;;
781;SDS011;374;52.568;13.402;2022-11-13T03:48:09;22.60;;;17.00;;
781;SDS011;374;52.568;13.402;2022-11-13T03:50:37;19.43;;;15.50;;
781;SDS011;374;52.568;13.402;2022-11-13T03:53:03;16.80;;;14.80;;
781;SDS011;374;52.568;13.402;2022-11-13T03:55:29;17.93;;;15.83;;
781;SDS011;374;52.568;13.402;2022-11-13T03:57:54;23.00;;;17.10;;
781;SDS011;374;52.568;13.402;2022-11-13T04:00:19;17.80;;;14.67;;
781;SDS011;374;52.568;13.402;2022-11-13T04:02:45;23.10;;;16.33;;
781;SDS011;374;52.568;13.402;2022-11-13T04:05:11;21.47;;;16.37;;
781;SDS011;374;52.568;13.402;2022-11-13T04:07:36;17.93;;;15.47;;
781;SDS011;374;52.568;13.402;2022-11-13T04:10:02;19.47;;;15.53;;
781;SDS011;374;52.568;13.402;2022-11-13T04:12:28;16.10;;;14.40;;
781;SDS011;374;52.568;13.402;2022-11-13T04:14:53;22.47;;;16.17;;
781;SDS011;374;52.568;13.402;2022-11-13T04:17:19;17.30;;;15.00;;
781;SDS011;374;52.568;13.402;2022-11-13T04:19:44;18.67;;;15.77;;
781;SDS011;374;52.568;13.402;2022-11-13T04:22:09;18.97;;;16.80;;
781;SDS011;374;52.568;13.402;2022-11-13T04:24:35;21.30;;;16.03;;
781;SDS011;374;52.568;13.402;2022-11-13T04:27:00;20.40;;;15.53;;
781;SDS011;374;52.568;13.402;2022-11-13T04:29:26;19.57;;;15.03;;
781;SDS011;374;52.568;13.402;2022-11-13T04:31:51;20.20;;;15.33;;
781;SDS011;374;52.568;13.402;2022-11-13T04:34:17;17.13;;;13.83;;
781;SDS011;374;52.568;13.402;2022-11-13T04:36:42;16.07;;;14.10;;
781;SDS011;374;52.568;13.402;2022-11-13T04:39:08;17.53;;;14.07;;
781;SDS011;374;52.568;13.402;2022-11-13T04:41:33;16.57;;;14.77;;
781;SDS011;374;52.568;13.402;2022-11-13T04:44:20;19.93;;;15.90;;
781;SDS011;374;52.568;13.402;2022-11-13T04:46:46;18.53;;;14.03;;
781;SDS011;374;52.568;13.402;2022-11-13T04:49:11;16.63;;;13.47;;
781;SDS011;374;52.568;13.402;2022-11-13T04:51:37;19.90;;;15.30;;
781;SDS011;374;52.568;13.402;2022-11-13T04:54:02;17.03;;;14.13;;
781;SDS011;374;52.568;13.402;2022-11-13T04:56:28;16.57;;;13.80;;
781;SDS011;374;52.568;13.402;2022-11-13T04:58:56;16.67;;;13.80;;
781;SDS011;374;52.568;13.402;2022-11-13T05:01:22;19.67;;;15.77;;
781;SDS011;374;52.568;13.402;2022-11-13T05:03:47;18.13;;;15.77;;
781;SDS011;374;52.568;13.402;2022-11-13T05:06:13;18.07;;;15.50;;
781;SDS011;374;52.568;13.402;2022-11-13T05:08:38;16.93;;;15.13;;
781;SDS011;374;52.568;13.402;2022-11-13T05:11:04;18.27;;;16.33;;
781;SDS011;374;52.568;13.402;2022-11-13T05:13:31;18.70;;;15.23;;
781;SDS011;374;52.568;13.402;2022-11-13T05:16:01;19.90;;;15.50;;
781;SDS011;374;52.568;13.402;2022-11-13T05:18:29;18.70;;;15.43;;
781;SDS011;374;52.568;13.402;2022-11-13T05:20:55;19.10;;;15.17;;
781;SDS011;374;52.568;13.402;2022-11-13T05:23:20;19.43;;;15.93;;
781;SDS011;374;52.568;13.402;2022-11-13T05:25:46;18.60;;;16.40;;
781;SDS011;374;52.568;13.402;2022-11-13T05:28:11;20.00;;;14.97;;
781;SDS011;374;52.568;13.402;2022-11-13T05:30:37;24.97;;;19.10;;
781;SDS011;374;52.568;13.402;2022-11-13T05:33:05;19.67;;;16.47;;
781;SDS011;374;52.568;13.402;2022-11-13T05:35:30;19.57;;;15.43;;
781;SDS011;374;52.568;13.402;2022-11-13T05:37:58;19.83;;;17.00;;
781;SDS011;374;52.568;13.402;2022-11-13T05:40:25;17.63;;;15.73;;
781;SDS011;374;52.568;13.402;2022-11-13T05:42:52;22.40;;;16.83;;
781;SDS011;374;52.568;13.402;2022-11-13T05:45:18;19.30;;;16.60;;
781;SDS011;374;52.568;13.402;2022-11-13T05:47:43;19.77;;;16.67;;
781;SDS011;374;52.568;13.402;2022-11-13T05:50:09;19.73;;;16.90;;
781;SDS011;374;52.568;13.402;2022-11-13T05:52:34;20.73;;;15.73;;
781;SDS011;374;52.568;13.402;2022-11-13T05:55:00;18.77;;;16.37;;
781;SDS011;374;52.568;13.402;2022-11-13T05:57:25;22.47;;;17.90;;
781;SDS011;374;52.568;13.402;2022-11-13T05:59:51;23.43;;;17.90;;
781;SDS011;374;52.568;13.402;2022-11-13T06:02:16;21.20;;;18.10;;
781;SDS011;374;52.568;13.402;2022-11-13T06:04:42;20.50;;;16.60;;
781;SDS011;374;52.568;13.402;2022-11-13T06:07:07;18.33;;;16.30;;
781;SDS011;374;52.568;13.402;2022-11-13T06:09:33;20.37;;;16.50;;
781;SDS011;374;52.568;13.402;2022-11-13T06:11:58;20.60;;;16.50;;
781;SDS011;374;52.568;13.402;2022-11-13T06:14:24;16.70;;;12.13;;
781;SDS011;374;52.568;13.402;2022-11-13T06:16:49;18.90;;;13.63;;
781;SDS011;374;52.568;13.402;2022-11-13T06:19:15;19.13;;;14.13;;
781;SDS011;374;52.568;13.402;2022-11-13T06:21:41;17.37;;;13.47;;
781;SDS011;374;52.568;13.402;2022-11-13T06:24:07;16.93;;;12.90;;
781;SDS011;374;52.568;13.402;2022-11-13T06:26:35;13.87;;;11.23;;
781;SDS011;374;52.568;13.402;2022-11-13T06:29:02;17.63;;;14.07;;
781;SDS011;374;52.568;13.402;2022-11-13T06:31:30;14.83;;;13.23;;
781;SDS011;374;52.568;13.402;2022-11-13T06:33:59;16.17;;;13.90;;
781;SDS011;374;52.568;13.402;2022-11-13T06:36:26;18.30;;;14.20;;
781;SDS011;374;52.568;13.402;2022-11-13T06:38:54;21.23;;;14.10;;
781;SDS011;374;52.568;13.402;2022-11-13T06:41:20;18.23;;;14.03;;
781;SDS011;374;52.568;13.402;2022-11-13T06:43:47;20.83;;;15.40;;
781;SDS011;374;52.568;13.402;2022-11-13T06:46:14;19.03;;;16.30;;
781;SDS011;374;52.568;13.402;2022-11-13T06:48:44;21.70;;;16.97;;
781;SDS011;374;52.568;13.402;2022-11-13T06:51:14;25.93;;;14.73;;
781;SDS011;374;52.568;13.402;2022-11-13T06:53:45;18.20;;;15.47;;
781;SDS011;374;52.568;13.402;2022-11-13T06:56:11;22.30;;;16.33;;
781;SDS011;374;52.568;13.402;2022-11-13T06:58:37;18.67;;;16.13;;
781;SDS011;374;52.568;13.402;2022-11-13T07:01:07;24.10;;;16.80;;
781;SDS011;374;52.568;13.402;2022-11-13T07:03:44;21.60;;;15.97;;
781;SDS011;374;52.568;13.402;2022-11-13T07:06:14;23.90;;;17.00;;
781;SDS011;374;52.568;13.402;2022-11-13T07:08:41;23.03;;;16.67;;
781;SDS011;374;52.568;13.402;2022-11-13T07:11:11;22.20;;;15.57;;
781;SDS011;374;52.568;13.402;2022-11-13T07:13:39;21.53;;;16.60;;
781;SDS011;374;52.568;13.402;2022-11-13T07:16:05;21.07;;;16.47;;
781;SDS011;374;52.568;13.402;2022-11-13T07:18:32;20.27;;;15.77;;
781;SDS011;374;52.568;13.402;2022-11-13T07:20:58;20.07;;;16.40;;
781;SDS011;374;52.568;13.402;2022-11-13T07:23:28;22.87;;;15.17;;
781;SDS011;374;52.568;13.402;2022-11-13T07:25:53;21.67;;;15.63;;
781;SDS011;374;52.568;13.402;2022-11-13T07:28:19;21.83;;;16.60;;
781;SDS011;374;52.568;13.402;2022-11-13T07:30:48;19.37;;;15.47;;
781;SDS011;374;52.568;13.402;2022-11-13T07:33:13;21.13;;;16.33;;
781;SDS011;374;52.568;13.402;2022-11-13T07:35:41;21.67;;;14.73;;
781;SDS011;374;52.568;13.402;2022-11-13T07:38:07;20.50;;;14.87;;
781;SDS011;374;52.568;13.402;2022-11-13T07:40:32;18.87;;;15.97;;
781;SDS011;374;52.568;13.402;2022-11-13T07:42:58;17.87;;;14.90;;
781;SDS011;374;52.568;13.402;2022-11-13T07:45:25;23.03;;;16.50;;
781;SDS011;374;52.568;13.402;2022-11-13T07:47:58;16.83;;;13.30;;
781;SDS011;374;52.568;13.402;2022-11-13T07:50:25;19.50;;;16.20;;
781;SDS011;374;52.568;13.402;2022-11-13T07:52:56;19.97;;;14.87;;
781;SDS011;374;52.568;13.402;2022-11-13T07:55:23;17.97;;;14.07;;
781;SDS011;374;52.568;13.402;2022-11-13T07:57:53;22.07;;;17.40;;
781;SDS011;374;52.568;13.402;2022-11-13T08:00:20;21.47;;;15.00;;
781;SDS011;374;52.568;13.402;2022-11-13T08:02:46;18.37;;;14.23;;
781;SDS011;374;52.568;13.402;2022-11-13T08:05:12;18.80;;;14.90;;
781;SDS011;374;52.568;13.402;2022-11-13T08:07:38;20.23;;;14.70;;
781;SDS011;374;52.568;13.402;2022-11-13T08:10:04;17.37;;;13.33;;
781;SDS011;374;52.568;13.402;2022-11-13T08:12:30;17.17;;;12.47;;
781;SDS011;374;52.568;13.402;2022-11-13T08:14:55;20.10;;;13.30;;
781;SDS011;374;52.568;13.402;2022-11-13T08:17:21;20.10;;;15.03;;
781;SDS011;374;52.568;13.402;2022-11-13T08:19:46;18.07;;;12.77;;
781;SDS011;374;52.568;13.402;2022-11-13T08:22:12;20.07;;;14.70;;
781;SDS011;374;52.568;13.402;2022-11-13T08:24:37;24.10;;;15.33;;
781;SDS011;374;52.568;13.402;2022-11-13T08:27:04;20.80;;;14.50;;
781;SDS011;374;52.568;13.402;2022-11-13T08:29:30;20.50;;;14.20;;
781;SDS011;374;52.568;13.402;2022-11-13T08:31:56;20.77;;;15.57;;
781;SDS011;374;52.568;13.402;2022-11-13T08:34:21;24.20;;;15.70;;
781;SDS011;374;52.568;13.402;2022-11-13T08:36:47;23.80;;;17.87;;
781;SDS011;374;52.568;13.402;2022-11-13T08:39:13;25.70;;;17.50;;
781;SDS011;374;52.568;13.402;2022-11-13T08:41:38;25.90;;;16.80;;
781;SDS011;374;52.568;13.402;2022-11-13T08:44:04;28.00;;;17.87;;
781;SDS011;374;52.568;13.402;2022-11-13T08:46:29;25.13;;;17.63;;
781;SDS011;374;52.568;13.402;2022-11-13T08:48:55;22.47;;;15.97;;
781;SDS011;374;52.568;13.402;2022-11-13T08:51:20;24.17;;;17.80;;
781;SDS011;374;52.568;13.402;2022-11-13T08:53:46;23.27;;;16.93;;
781;SDS011;374;52.568;13.402;2022-11-13T08:56:14;29.60;;;19.70;;
781;SDS011;374;52.568;13.402;2022-11-13T08:58:39;25.63;;;17.50;;
781;SDS011;374;52.568;13.402;2022-11-13T09:01:05;24.93;;;17.87;;
781;SDS011;374;52.568;13.402;2022-11-13T09:03:30;27.97;;;18.10;;
781;SDS011;374;52.568;13.402;2022-11-13T09:05:56;26.63;;;18.43;;
781;SDS011;374;52.568;13.402;2022-11-13T09:08:21;31.27;;;21.77;;
781;SDS011;374;52.568;13.402;2022-11-13T09:10:47;26.00;;;20.40;;
781;SDS011;374;52.568;13.402;2022-11-13T09:13:12;33.67;;;21.90;;
781;SDS011;374;52.568;13.402;2022-11-13T09:15:38;28.47;;;20.20;;
781;SDS011;374;52.568;13.402;2022-11-13T09:18:04;28.00;;;20.00;;
781;SDS011;374;52.568;13.402;2022-11-13T09:20:30;29.13;;;20.50;;
781;SDS011;374;52.568;13.402;2022-11-13T09:22:57;29.87;;;19.67;;
781;SDS011;374;52.568;13.402;2022-11-13T09:25:24;27.13;;;17.63;;
781;SDS011;374;52.568;13.402;2022-11-13T09:27:51;26.90;;;18.40;;
781;SDS011;374;52.568;13.402;2022-11-13T09:30:20;24.90;;;18.10;;
781;SDS011;374;52.568;13.402;2022-11-13T09:32:47;25.00;;;17.77;;
781;SDS011;374;52.568;13.402;2022-11-13T09:35:12;30.03;;;17.93;;
781;SDS011;374;52.568;13.402;2022-11-13T09:37:38;19.80;;;14.17;;
781;SDS011;374;52.568;13.402;2022-11-13T09:40:06;27.63;;;18.10;;
781;SDS011;374;52.568;13.402;2022-11-13T09:42:34;23.83;;;16.47;;
781;SDS011;374;52.568;13.402;2022-11-13T09:45:04;23.23;;;18.40;;
781;SDS011;374;52.568;13.402;2022-11-13T09:47:35;21.70;;;16.30;;
781;SDS011;374;52.568;13.402;2022-11-13T09:50:10;24.20;;;17.53;;
781;SDS011;374;52.568;13.402;2022-11-13T09:52:42;23.07;;;18.20;;
781;SDS011;374;52.568;13.402;2022-11-13T09:55:10;29.23;;;17.93;;
781;SDS011;374;52.568;13.402;2022-11-13T10:00:21;25.80;;;20.27;;
781;SDS011;374;52.568;13.402;2022-11-13T10:08:29;24.77;;;18.63;;
781;SDS011;374;52.568;13.402;2022-11-13T10:14:06;22.90;;;18.77;;
781;SDS011;374;52.568;13.402;2022-11-13T10:16:35;22.77;;;19.23;;
781;SDS011;374;52.568;13.402;2022-11-13T10:19:17;22.27;;;17.30;;
781;SDS011;374;52.568;13.402;2022-11-13T10:21:51;21.23;;;17.57;;
781;SDS011;374;52.568;13.402;2022-11-13T10:24:44;23.53;;;17.60;;
781;SDS011;374;52.568;13.402;2022-11-13T10:27:13;21.83;;;18.60;;
781;SDS011;374;52.568;13.402;2022-11-13T10:29:39;24.00;;;19.00;;
781;SDS011;374;52.568;13.402;2022-11-13T10:34:58;21.40;;;18.30;;
781;SDS011;374;52.568;13.402;2022-11-13T10:37:42;23.47;;;17.83;;
781;SDS011;374;52.568;13.402;2022-11-13T10:40:29;21.80;;;16.47;;
781;SDS011;374;52.568;13.402;2022-11-13T10:43:09;21.03;;;17.43;;
781;SDS011;374;52.568;13.402;2022-11-13T10:45:38;23.20;;;16.83;;
781;SDS011;374;52.568;13.402;2022-11-13T10:48:04;20.37;;;17.57;;
781;SDS011;374;52.568;13.402;2022-11-13T10:50:30;24.80;;;18.90;;
781;SDS011;374;52.568;13.402;2022-11-13T10:52:57;21.70;;;16.93;;
781;SDS011;374;52.568;13.402;2022-11-13T10:55:31;20.83;;;18.00;;
781;SDS011;374;52.568;13.402;2022-11-13T10:58:14;21.33;;;16.90;;
781;SDS011;374;52.568;13.402;2022-11-13T11:00:45;21.00;;;17.63;;
781;SDS011;374;52.568;13.402;2022-11-13T11:03:14;24.80;;;19.10;;
781;SDS011;374;52.568;13.402;2022-11-13T11:05:50;25.33;;;16.40;;
781;SDS011;374;52.568;13.402;2022-11-13T11:08:21;20.30;;;15.70;;
781;SDS011;374;52.568;13.402;2022-11-13T11:10:57;17.60;;;15.80;;
781;SDS011;374;52.568;13.402;2022-11-13T11:13:43;18.90;;;14.87;;
781;SDS011;374;52.568;13.402;2022-11-13T11:16:10;19.13;;;16.17;;
781;SDS011;374;52.568;13.402;2022-11-13T11:18:47;19.13;;;15.53;;
781;SDS011;374;52.568;13.402;2022-11-13T11:21:19;18.57;;;15.87;;
781;SDS011;374;52.568;13.402;2022-11-13T11:27:00;18.77;;;14.70;;
781;SDS011;374;52.568;13.402;2022-11-13T11:29:29;21.77;;;16.67;;
781;SDS011;374;52.568;13.402;2022-11-13T11:32:00;21.53;;;16.27;;
781;SDS011;374;52.568;13.402;2022-11-13T11:34:41;20.10;;;16.70;;
781;SDS011;374;52.568;13.402;2022-11-13T11:37:15;17.23;;;15.40;;
781;SDS011;374;52.568;13.402;2022-11-13T11:39:46;21.87;;;16.10;;
781;SDS011;374;52.568;13.402;2022-11-13T11:47:48;18.30;;;16.40;;
781;SDS011;374;52.568;13.402;2022-11-13T11:50:14;20.40;;;16.77;;
781;SDS011;374;52.568;13.402;2022-11-13T12:06:45;17.53;;;15.27;;
781;SDS011;374;52.568;13.402;2022-11-13T12:09:23;17.13;;;15.23;;
781;SDS011;374;52.568;13.402;2022-11-13T12:12:02;15.67;;;14.03;;
781;SDS011;374;52.568;13.402;2022-11-13T12:17:54;16.73;;;12.73;;
781;SDS011;374;52.568;13.402;2022-11-13T12:20:38;18.20;;;15.80;;
781;SDS011;374;52.568;13.402;2022-11-13T12:28:25;17.60;;;15.70;;
781;SDS011;374;52.568;13.402;2022-11-13T12:31:04;19.00;;;15.80;;
781;SDS011;374;52.568;13.402;2022-11-13T12:36:11;19.17;;;16.67;;
781;SDS011;374;52.568;13.402;2022-11-13T12:38:44;17.87;;;14.57;;
781;SDS011;374;52.568;13.402;2022-11-13T12:41:38;18.70;;;15.70;;
781;SDS011;374;52.568;13.402;2022-11-13T12:44:27;23.00;;;17.80;;
781;SDS011;374;52.568;13.402;2022-11-13T12:46:54;19.80;;;17.53;;
781;SDS011;374;52.568;13.402;2022-11-13T12:51:56;19.00;;;16.77;;
781;SDS011;374;52.568;13.402;2022-11-13T12:54:30;19.43;;;17.33;;
781;SDS011;374;52.568;13.402;2022-11-13T12:59:42;21.37;;;15.83;;
781;SDS011;374;52.568;13.402;2022-11-13T13:02:18;22.63;;;16.10;;
781;SDS011;374;52.568;13.402;2022-11-13T13:05:05;25.83;;;16.67;;
781;SDS011;374;52.568;13.402;2022-11-13T13:10:46;21.57;;;16.73;;
781;SDS011;374;52.568;13.402;2022-11-13T13:13:29;20.60;;;15.70;;
781;SDS011;374;52.568;13.402;2022-11-13T13:16:02;20.13;;;15.60;;
781;SDS011;374;52.568;13.402;2022-11-13T13:18:35;22.90;;;15.77;;
781;SDS011;374;52.568;13.402;2022-11-13T13:23:39;16.57;;;14.83;;
781;SDS011;374;52.568;13.402;2022-11-13T13:26:20;18.60;;;15.77;;
781;SDS011;374;52.568;13.402;2022-11-13T13:28:53;16.60;;;14.27;;
781;SDS011;374;52.568;13.402;2022-11-13T13:40:26;19.33;;;14.20;;
781;SDS011;374;52.568;13.402;2022-11-13T13:43:29;18.60;;;14.07;;
781;SDS011;374;52.568;13.402;2022-11-13T13:46:18;17.20;;;13.80;;
781;SDS011;374;52.568;13.402;2022-11-13T13:48:47;18.80;;;15.67;;
781;SDS011;374;52.568;13.402;2022-11-13T13:51:28;19.30;;;15.10;;
781;SDS011;374;52.568;13.402;2022-11-13T13:54:00;20.97;;;16.30;;
781;SDS011;374;52.568;13.402;2022-11-13T13:56:33;16.77;;;15.07;;
781;SDS011;374;52.568;13.402;2022-11-13T13:59:05;16.43;;;14.53;;
781;SDS011;374;52.568;13.402;2022-11-13T14:01:57;17.10;;;14.83;;
781;SDS011;374;52.568;13.402;2022-11-13T14:04:26;18.60;;;15.33;;
781;SDS011;374;52.568;13.402;2022-11-13T14:06:56;18.10;;;14.40;;
781;SDS011;374;52.568;13.402;2022-11-13T14:09:28;15.80;;;14.20;;
781;SDS011;374;52.568;13.402;2022-11-13T14:12:01;19.50;;;15.20;;
781;SDS011;374;52.568;13.402;2022-11-13T14:15:04;17.97;;;14.40;;
781;SDS011;374;52.568;13.402;2022-11-13T14:21:09;18.90;;;14.07;;
781;SDS011;374;52.568;13.402;2022-11-13T14:23:48;17.13;;;13.80;;
781;SDS011;374;52.568;13.402;2022-11-13T14:26:15;20.10;;;14.73;;
781;SDS011;374;52.568;13.402;2022-11-13T14:29:00;19.03;;;14.60;;
781;SDS011;374;52.568;13.402;2022-11-13T14:31:31;17.00;;;14.60;;
781;SDS011;374;52.568;13.402;2022-11-13T14:34:06;17.33;;;14.30;;
781;SDS011;374;52.568;13.402;2022-11-13T14:36:34;15.63;;;13.97;;
781;SDS011;374;52.568;13.402;2022-11-13T14:39:01;18.10;;;14.80;;
781;SDS011;374;52.568;13.402;2022-11-13T14:41:30;18.17;;;13.87;;
781;SDS011;374;52.568;13.402;2022-11-13T14:44:01;16.40;;;14.13;;
781;SDS011;374;52.568;13.402;2022-11-13T14:46:28;17.97;;;15.37;;
781;SDS011;374;52.568;13.402;2022-11-13T14:48:54;18.03;;;14.90;;
781;SDS011;374;52.568;13.402;2022-11-13T14:51:22;17.10;;;15.27;;
781;SDS011;374;52.568;13.402;2022-11-13T14:54:03;18.17;;;14.27;;
781;SDS011;374;52.568;13.402;2022-11-13T14:59:06;19.30;;;14.67;;
781;SDS011;374;52.568;13.402;2022-11-13T15:01:40;16.40;;;14.60;;
781;SDS011;374;52.568;13.402;2022-11-13T15:04:17;17.13;;;13.97;;
781;SDS011;374;52.568;13.402;2022-11-13T15:06:45;17.13;;;15.00;;
781;SDS011;374;52.568;13.402;2022-11-13T15:09:14;18.17;;;15.50;;
781;SDS011;374;52.568;13.402;2022-11-13T15:11:41;17.37;;;14.60;;
781;SDS011;374;52.568;13.402;2022-11-13T15:14:11;18.53;;;13.83;;
781;SDS011;374;52.568;13.402;2022-11-13T15:16:38;20.50;;;15.87;;
781;SDS011;374;52.568;13.402;2022-11-13T15:19:27;19.20;;;15.27;;
781;SDS011;374;52.568;13.402;2022-11-13T15:21:53;19.53;;;15.70;;
781;SDS011;374;52.568;13.402;2022-11-13T15:24:20;23.40;;;14.37;;
781;SDS011;374;52.568;13.402;2022-11-13T15:26:45;20.63;;;16.43;;
781;SDS011;374;52.568;13.402;2022-11-13T15:29:11;21.10;;;17.67;;
781;SDS011;374;52.568;13.402;2022-11-13T15:31:39;20.87;;;16.07;;
781;SDS011;374;52.568;13.402;2022-11-13T15:34:09;18.27;;;15.77;;
781;SDS011;374;52.568;13.402;2022-11-13T15:36:36;18.83;;;15.17;;
781;SDS011;374;52.568;13.402;2022-11-13T15:39:02;21.77;;;17.20;;
781;SDS011;374;52.568;13.402;2022-11-13T15:41:28;20.40;;;17.37;;
781;SDS011;374;52.568;13.402;2022-11-13T15:43:54;18.77;;;15.07;;
781;SDS011;374;52.568;13.402;2022-11-13T15:46:21;22.37;;;17.97;;
781;SDS011;374;52.568;13.402;2022-11-13T15:48:47;21.70;;;17.30;;
781;SDS011;374;52.568;13.402;2022-11-13T15:51:20;22.57;;;18.17;;
781;SDS011;374;52.568;13.402;2022-11-13T15:53:53;22.60;;;17.10;;
781;SDS011;374;52.568;13.402;2022-11-13T15:56:23;19.30;;;16.30;;
781;SDS011;374;52.568;13.402;2022-11-13T15:58:51;21.93;;;18.30;;
781;SDS011;374;52.568;13.402;2022-11-13T16:01:17;22.03;;;16.93;;
781;SDS011;374;52.568;13.402;2022-11-13T16:03:44;20.77;;;17.70;;
781;SDS011;374;52.568;13.402;2022-11-13T16:06:16;24.77;;;18.67;;
781;SDS011;374;52.568;13.402;2022-11-13T16:08:44;20.53;;;17.23;;
781;SDS011;374;52.568;13.402;2022-11-13T16:11:17;24.57;;;20.50;;
781;SDS011;374;52.568;13.402;2022-11-13T16:13:44;23.13;;;18.70;;
781;SDS011;374;52.568;13.402;2022-11-13T16:16:18;25.10;;;18.00;;
781;SDS011;374;52.568;13.402;2022-11-13T16:18:48;23.87;;;18.10;;
781;SDS011;374;52.568;13.402;2022-11-13T16:21:14;23.90;;;19.00;;
781;SDS011;374;52.568;13.402;2022-11-13T16:23:44;24.07;;;19.20;;
781;SDS011;374;52.568;13.402;2022-11-13T16:26:28;23.70;;;19.27;;